sensor_id;sensor_type;location;lat;lon;timestamp;pressure;altitude;pressure_sealevel;temperature;humidity
48606;BME280;8482;54.396;18.590;2023-03-23T06:08:18;100164.50;;;11.56;69.80
48606;BME280;8482;54.396;18.590;2023-03-23T06:10:44;100149.13;;;11.59;69.45
48606;BME280;8482;54.396;18.590;2023-03-23T06:13:10;100157.50;;;11.64;69.45
48606;BME280;8482;54.396;18.590;2023-03-23T06:15:36;100152.34;;;11.63;68.76
48606;BME280;8482;54.396;18.590;2023-03-23T06:18:02;100165.31;;;11.76;68.82
48606;BME280;8482;54.396;18.590;2023-03-23T06:20:29;100171.03;;;11.81;68.33
48606;BME280;8482;54.396;18.590;2023-03-23T06:22:55;100175.06;;;11.85;68.33
48606;BME280;8482;54.396;18.590;2023-03-23T06:25:22;100179.41;;;11.86;67.76
48606;BME280;8482;54.396;18.590;2023-03-23T06:27:49;100178.31;;;11.89;67.02
48606;BME280;8482;54.396;18.590;2023-03-23T06:30:15;100167.78;;;11.87;67.11
48606;BME280;8482;54.396;18.590;2023-03-23T06:32:42;100171.44;;;11.86;66.25
48606;BME280;8482;54.396;18.590;2023-03-23T06:35:10;100172.81;;;11.90;66.16
48606;BME280;8482;54.396;18.590;2023-03-23T06:37:37;100180.25;;;11.87;66.18
48606;BME280;8482;54.396;18.590;2023-03-23T06:40:05;100168.50;;;11.89;65.87
48606;BME280;8482;54.396;18.590;2023-03-23T06:42:35;100168.22;;;11.92;65.73
48606;BME280;8482;54.396;18.590;2023-03-23T06:45:04;100144.84;;;11.86;65.59
48606;BME280;8482;54.396;18.590;2023-03-23T06:47:30;100158.03;;;11.88;65.83
48606;BME280;8482;54.396;18.590;2023-03-23T06:49:57;100150.88;;;11.88;65.98
48606;BME280;8482;54.396;18.590;2023-03-23T06:52:24;100152.09;;;11.94;65.67
48606;BME280;8482;54.396;18.590;2023-03-23T06:54:51;100133.94;;;11.99;65.41
48606;BME280;8482;54.396;18.590;2023-03-23T06:57:18;100125.25;;;12.07;65.11
48606;BME280;8482;54.396;18.590;2023-03-23T06:59:44;100117.13;;;12.08;65.14
48606;BME280;8482;54.396;18.590;2023-03-23T07:02:13;100117.22;;;12.17;64.76
48606;BME280;8482;54.396;18.590;2023-03-23T07:04:42;100134.25;;;12.24;64.67
48606;BME280;8482;54.396;18.590;2023-03-23T07:07:10;100134.50;;;12.31;64.43
48606;BME280;8482;54.396;18.590;2023-03-23T07:09:38;100122.59;;;12.35;64.73
48606;BME280;8482;54.396;18.590;2023-03-23T07:12:05;100114.69;;;12.43;64.33
48606;BME280;8482;54.396;18.590;2023-03-23T07:14:31;100123.22;;;12.47;63.96
48606;BME280;8482;54.396;18.590;2023-03-23T07:16:57;100133.81;;;12.56;63.63
48606;BME280;8482;54.396;18.590;2023-03-23T07:19:23;100129.34;;;12.57;63.29
48606;BME280;8482;54.396;18.590;2023-03-23T07:21:49;100137.31;;;12.57;63.20
48606;BME280;8482;54.396;18.590;2023-03-23T07:24:15;100157.22;;;12.53;63.39
48606;BME280;8482;54.396;18.590;2023-03-23T07:26:42;100151.34;;;12.49;62.88
48606;BME280;8482;54.396;18.590;2023-03-23T07:29:09;100142.94;;;12.54;62.98
48606;BME280;8482;54.396;18.590;2023-03-23T07:31:35;100117.31;;;12.53;63.01
48606;BME280;8482;54.396;18.590;2023-03-23T07:34:02;100115.47;;;12.53;62.67
48606;BME280;8482;54.396;18.590;2023-03-23T07:36:29;100113.97;;;12.51;62.74
48606;BME280;8482;54.396;18.590;2023-03-23T07:38:55;100123.44;;;12.53;62.90
48606;BME280;8482;54.396;18.590;2023-03-23T07:41:22;100131.59;;;12.52;62.93
48606;BME280;8482;54.396;18.590;2023-03-23T07:43:48;100142.41;;;12.50;63.09
48606;BME280;8482;54.396;18.590;2023-03-23T07:46:14;100131.44;;;12.53;63.04
48606;BME280;8482;54.396;18.590;2023-03-23T07:48:39;100113.50;;;12.55;63.10
48606;BME280;8482;54.396;18.590;2023-03-23T07:51:06;100107.59;;;12.62;62.79
48606;BME280;8482;54.396;18.590;2023-03-23T07:53:33;100116.25;;;12.64;63.10
48606;BME280;8482;54.396;18.590;2023-03-23T07:56:00;100109.81;;;12.66;63.03
48606;BME280;8482;54.396;18.590;2023-03-23T07:58:27;100103.50;;;12.67;63.15
48606;BME280;8482;54.396;18.590;2023-03-23T08:00:53;100091.00;;;12.68;63.07
48606;BME280;8482;54.396;18.590;2023-03-23T08:03:22;100081.06;;;12.70;63.27
48606;BME280;8482;54.396;18.590;2023-03-23T08:05:48;100092.38;;;12.72;63.25
48606;BME280;8482;54.396;18.590;2023-03-23T08:08:13;100097.09;;;12.78;62.67
48606;BME280;8482;54.396;18.590;2023-03-23T08:10:40;100084.19;;;12.83;62.16
48606;BME280;8482;54.396;18.590;2023-03-23T08:13:06;100106.84;;;12.87;62.59
48606;BME280;8482;54.396;18.590;2023-03-23T08:15:32;100104.72;;;12.91;62.31
48606;BME280;8482;54.396;18.590;2023-03-23T08:18:03;100097.94;;;12.97;61.99
48606;BME280;8482;54.396;18.590;2023-03-23T08:20:29;100108.66;;;13.05;62.01
48606;BME280;8482;54.396;18.590;2023-03-23T08:22:56;100106.53;;;13.09;62.55
48606;BME280;8482;54.396;18.590;2023-03-23T08:25:23;100108.72;;;13.13;61.78
48606;BME280;8482;54.396;18.590;2023-03-23T08:27:53;100110.41;;;13.14;61.74
48606;BME280;8482;54.396;18.590;2023-03-23T08:30:21;100121.75;;;13.16;61.89
48606;BME280;8482;54.396;18.590;2023-03-23T08:32:49;100119.59;;;13.20;61.69
48606;BME280;8482;54.396;18.590;2023-03-23T08:35:17;100109.09;;;13.18;61.84
48606;BME280;8482;54.396;18.590;2023-03-23T08:37:44;100123.94;;;13.21;62.06
48606;BME280;8482;54.396;18.590;2023-03-23T08:40:13;100125.75;;;13.21;62.08
48606;BME280;8482;54.396;18.590;2023-03-23T08:42:42;100121.41;;;13.19;62.40
48606;BME280;8482;54.396;18.590;2023-03-23T08:45:12;100120.94;;;13.24;62.64
48606;BME280;8482;54.396;18.590;2023-03-23T08:47:39;100128.72;;;13.17;62.70
48606;BME280;8482;54.396;18.590;2023-03-23T08:50:13;100127.06;;;13.16;63.02
48606;BME280;8482;54.396;18.590;2023-03-23T08:52:40;100133.53;;;13.14;63.29
48606;BME280;8482;54.396;18.590;2023-03-23T08:55:07;100136.13;;;13.06;63.64
48606;BME280;8482;54.396;18.590;2023-03-23T08:57:35;100127.63;;;13.02;63.76
48606;BME280;8482;54.396;18.590;2023-03-23T09:00:05;100140.06;;;13.01;64.65
48606;BME280;8482;54.396;18.590;2023-03-23T09:02:41;100134.22;;;12.98;64.88
48606;BME280;8482;54.396;18.590;2023-03-23T09:05:09;100138.69;;;12.97;64.99
48606;BME280;8482;54.396;18.590;2023-03-23T09:07:44;100129.88;;;12.97;64.87
48606;BME280;8482;54.396;18.590;2023-03-23T09:10:13;100131.16;;;12.93;65.25
48606;BME280;8482;54.396;18.590;2023-03-23T09:12:43;100131.50;;;12.90;65.86
48606;BME280;8482;54.396;18.590;2023-03-23T09:15:12;100118.94;;;12.82;65.65
48606;BME280;8482;54.396;18.590;2023-03-23T09:17:47;100135.50;;;12.94;66.01
48606;BME280;8482;54.396;18.590;2023-03-23T09:20:20;100133.69;;;12.94;65.98
48606;BME280;8482;54.396;18.590;2023-03-23T09:22:50;100136.50;;;12.93;66.64
48606;BME280;8482;54.396;18.590;2023-03-23T09:25:21;100146.16;;;12.94;66.66
48606;BME280;8482;54.396;18.590;2023-03-23T09:27:57;100122.19;;;12.94;66.74
48606;BME280;8482;54.396;18.590;2023-03-23T09:30:27;100106.63;;;12.81;66.78
48606;BME280;8482;54.396;18.590;2023-03-23T09:32:57;100130.88;;;12.96;66.65
48606;BME280;8482;54.396;18.590;2023-03-23T09:35:27;100147.13;;;12.93;67.35
48606;BME280;8482;54.396;18.590;2023-03-23T09:37:53;100125.84;;;12.93;67.81
48606;BME280;8482;54.396;18.590;2023-03-23T09:40:29;100122.50;;;12.91;67.83
48606;BME280;8482;54.396;18.590;2023-03-23T09:51:17;100142.19;;;12.80;69.15
48606;BME280;8482;54.396;18.590;2023-03-23T09:53:53;100141.22;;;12.81;69.67
48606;BME280;8482;54.396;18.590;2023-03-23T09:56:20;100134.69;;;12.75;69.18
48606;BME280;8482;54.396;18.590;2023-03-23T09:58:59;100126.00;;;12.73;69.76
48606;BME280;8482;54.396;18.590;2023-03-23T10:01:34;100123.63;;;12.70;70.06
48606;BME280;8482;54.396;18.590;2023-03-23T10:04:24;100128.66;;;12.73;70.42
48606;BME280;8482;54.396;18.590;2023-03-23T10:06:58;100122.66;;;12.71;70.25
48606;BME280;8482;54.396;18.590;2023-03-23T10:09:26;100123.19;;;12.75;71.04
48606;BME280;8482;54.396;18.590;2023-03-23T10:15:02;100132.84;;;12.76;71.08
48606;BME280;8482;54.396;18.590;2023-03-23T10:17:44;100133.00;;;12.74;71.26
48606;BME280;8482;54.396;18.590;2023-03-23T10:28:58;100135.66;;;12.74;72.13
48606;BME280;8482;54.396;18.590;2023-03-23T10:31:35;100137.47;;;12.73;72.19
48606;BME280;8482;54.396;18.590;2023-03-23T10:34:10;100148.50;;;12.79;72.16
48606;BME280;8482;54.396;18.590;2023-03-23T10:36:55;100142.03;;;12.81;71.85
48606;BME280;8482;54.396;18.590;2023-03-23T10:39:29;100136.41;;;12.84;71.38
48606;BME280;8482;54.396;18.590;2023-03-23T10:41:56;100146.91;;;12.86;71.22
48606;BME280;8482;54.396;18.590;2023-03-23T10:44:28;100149.56;;;12.86;71.28
48606;BME280;8482;54.396;18.590;2023-03-23T10:47:06;100136.88;;;12.80;71.30
48606;BME280;8482;54.396;18.590;2023-03-23T10:49:43;100149.91;;;12.83;71.10
48606;BME280;8482;54.396;18.590;2023-03-23T10:52:36;100137.19;;;12.77;71.35
48606;BME280;8482;54.396;18.590;2023-03-23T10:55:17;100145.31;;;12.75;71.14
48606;BME280;8482;54.396;18.590;2023-03-23T10:58:04;100140.53;;;12.79;71.96
48606;BME280;8482;54.396;18.590;2023-03-23T11:00:31;100146.09;;;12.85;71.88
48606;BME280;8482;54.396;18.590;2023-03-23T11:03:24;100155.88;;;12.85;71.91
48606;BME280;8482;54.396;18.590;2023-03-23T11:06:05;100147.47;;;12.90;71.47
48606;BME280;8482;54.396;18.590;2023-03-23T11:09:02;100135.81;;;12.91;70.78
48606;BME280;8482;54.396;18.590;2023-03-23T11:11:39;100142.81;;;12.92;71.30
48606;BME280;8482;54.396;18.590;2023-03-23T11:14:27;100158.78;;;12.92;71.24
48606;BME280;8482;54.396;18.590;2023-03-23T11:17:27;100145.47;;;12.92;70.56
48606;BME280;8482;54.396;18.590;2023-03-23T11:19:53;100142.97;;;12.90;70.86
48606;BME280;8482;54.396;18.590;2023-03-23T11:22:31;100141.00;;;12.92;71.32
48606;BME280;8482;54.396;18.590;2023-03-23T11:25:04;100161.81;;;12.97;70.76
48606;BME280;8482;54.396;18.590;2023-03-23T11:27:32;100135.22;;;12.97;71.02
48606;BME280;8482;54.396;18.590;2023-03-23T11:30:11;100132.53;;;12.97;70.58
48606;BME280;8482;54.396;18.590;2023-03-23T11:32:45;100138.03;;;12.95;70.42
48606;BME280;8482;54.396;18.590;2023-03-23T11:35:22;100134.53;;;12.95;70.25
48606;BME280;8482;54.396;18.590;2023-03-23T11:37:56;100128.66;;;12.91;70.01
48606;BME280;8482;54.396;18.590;2023-03-23T11:40:30;100108.53;;;12.88;70.24
48606;BME280;8482;54.396;18.590;2023-03-23T11:43:12;100127.00;;;12.90;69.95
48606;BME280;8482;54.396;18.590;2023-03-23T11:45:47;100111.19;;;12.88;70.11
48606;BME280;8482;54.396;18.590;2023-03-23T11:48:44;100123.56;;;12.98;69.74
48606;BME280;8482;54.396;18.590;2023-03-23T11:51:23;100159.09;;;13.07;69.60
48606;BME280;8482;54.396;18.590;2023-03-23T11:56:44;100120.34;;;13.30;68.36
48606;BME280;8482;54.396;18.590;2023-03-23T11:59:18;100128.97;;;13.42;67.87
48606;BME280;8482;54.396;18.590;2023-03-23T12:04:43;100132.22;;;13.81;66.62
48606;BME280;8482;54.396;18.590;2023-03-23T12:07:47;100127.84;;;14.06;65.85
48606;BME280;8482;54.396;18.590;2023-03-23T12:10:56;100119.13;;;14.30;64.15
48606;BME280;8482;54.396;18.590;2023-03-23T12:21:39;100117.91;;;14.67;62.81
48606;BME280;8482;54.396;18.590;2023-03-23T12:24:22;100119.25;;;14.71;62.41
48606;BME280;8482;54.396;18.590;2023-03-23T12:32:40;100114.59;;;14.90;61.78
48606;BME280;8482;54.396;18.590;2023-03-23T12:44:02;100108.94;;;14.85;61.08
48606;BME280;8482;54.396;18.590;2023-03-23T12:47:01;100113.97;;;14.88;61.32
48606;BME280;8482;54.396;18.590;2023-03-23T12:49:46;100117.63;;;14.87;61.02
48606;BME280;8482;54.396;18.590;2023-03-23T12:52:26;100110.94;;;14.83;61.09
48606;BME280;8482;54.396;18.590;2023-03-23T12:55:21;100108.59;;;14.71;61.74
48606;BME280;8482;54.396;18.590;2023-03-23T12:58:05;100115.53;;;14.64;61.55
48606;BME280;8482;54.396;18.590;2023-03-23T13:01:30;100102.19;;;14.56;61.99
48606;BME280;8482;54.396;18.590;2023-03-23T13:11:40;100111.28;;;14.96;61.00
48606;BME280;8482;54.396;18.590;2023-03-23T13:17:16;100114.13;;;15.03;60.77
48606;BME280;8482;54.396;18.590;2023-03-23T13:23:33;100103.25;;;15.46;60.62
48606;BME280;8482;54.396;18.590;2023-03-23T13:26:06;100105.44;;;16.47;58.30
48606;BME280;8482;54.396;18.590;2023-03-23T13:29:08;100100.00;;;17.33;55.09
48606;BME280;8482;54.396;18.590;2023-03-23T13:31:38;100118.53;;;17.58;53.79
48606;BME280;8482;54.396;18.590;2023-03-23T13:34:29;100123.50;;;17.46;53.67
48606;BME280;8482;54.396;18.590;2023-03-23T13:37:00;100143.97;;;17.24;54.25
48606;BME280;8482;54.396;18.590;2023-03-23T13:44:57;100113.63;;;17.91;53.22
48606;BME280;8482;54.396;18.590;2023-03-23T13:47:39;100110.81;;;18.08;52.24
48606;BME280;8482;54.396;18.590;2023-03-23T13:52:52;100131.44;;;18.07;51.90
48606;BME280;8482;54.396;18.590;2023-03-23T14:05:39;100132.13;;;16.63;55.35
48606;BME280;8482;54.396;18.590;2023-03-23T14:16:48;100124.63;;;15.54;58.66
48606;BME280;8482;54.396;18.590;2023-03-23T14:19:26;100128.66;;;15.33;59.39
48606;BME280;8482;54.396;18.590;2023-03-23T14:22:00;100122.66;;;15.15;60.19
48606;BME280;8482;54.396;18.590;2023-03-23T14:24:40;100118.78;;;15.01;60.65
48606;BME280;8482;54.396;18.590;2023-03-23T14:27:13;100119.94;;;14.90;61.21
48606;BME280;8482;54.396;18.590;2023-03-23T14:29:40;100110.44;;;14.79;61.60
48606;BME280;8482;54.396;18.590;2023-03-23T14:32:14;100118.41;;;14.71;61.93
48606;BME280;8482;54.396;18.590;2023-03-23T14:34:41;100119.19;;;14.63;62.04
48606;BME280;8482;54.396;18.590;2023-03-23T14:37:15;100114.69;;;14.55;62.43
48606;BME280;8482;54.396;18.590;2023-03-23T14:39:47;100099.81;;;14.53;62.49
48606;BME280;8482;54.396;18.590;2023-03-23T14:42:18;100109.38;;;14.55;62.74
48606;BME280;8482;54.396;18.590;2023-03-23T14:44:49;100125.69;;;14.61;62.73
48606;BME280;8482;54.396;18.590;2023-03-23T14:47:39;100125.59;;;14.70;62.62
48606;BME280;8482;54.396;18.590;2023-03-23T14:50:23;100132.75;;;14.70;62.62
48606;BME280;8482;54.396;18.590;2023-03-23T14:52:49;100129.88;;;14.63;62.77
48606;BME280;8482;54.396;18.590;2023-03-23T14:55:22;100125.00;;;14.50;63.05
48606;BME280;8482;54.396;18.590;2023-03-23T14:57:49;100130.47;;;14.40;63.49
48606;BME280;8482;54.396;18.590;2023-03-23T15:00:25;100132.13;;;14.33;63.76
48606;BME280;8482;54.396;18.590;2023-03-23T15:02:56;100129.47;;;14.33;64.30
48606;BME280;8482;54.396;18.590;2023-03-23T15:05:45;100123.25;;;14.24;64.25
48606;BME280;8482;54.396;18.590;2023-03-23T15:08:23;100111.91;;;14.22;64.60
48606;BME280;8482;54.396;18.590;2023-03-23T15:11:13;100134.56;;;14.18;65.10
48606;BME280;8482;54.396;18.590;2023-03-23T15:13:54;100124.38;;;14.14;65.02
48606;BME280;8482;54.396;18.590;2023-03-23T15:16:27;100121.56;;;14.15;65.23
48606;BME280;8482;54.396;18.590;2023-03-23T15:19:10;100121.03;;;14.12;65.87
48606;BME280;8482;54.396;18.590;2023-03-23T15:22:04;100123.22;;;14.16;65.46
48606;BME280;8482;54.396;18.590;2023-03-23T15:24:38;100129.22;;;14.18;65.62
48606;BME280;8482;54.396;18.590;2023-03-23T15:27:24;100116.75;;;14.19;65.62
48606;BME280;8482;54.396;18.590;2023-03-23T15:29:58;100126.72;;;14.17;65.75
48606;BME280;8482;54.396;18.590;2023-03-23T15:32:38;100125.22;;;14.14;66.13
48606;BME280;8482;54.396;18.590;2023-03-23T15:35:14;100128.22;;;14.11;65.80
48606;BME280;8482;54.396;18.590;2023-03-23T15:37:50;100141.53;;;14.11;66.02
48606;BME280;8482;54.396;18.590;2023-03-23T15:40:21;100130.56;;;14.14;66.17
48606;BME280;8482;54.396;18.590;2023-03-23T15:42:49;100135.09;;;14.22;66.12
48606;BME280;8482;54.396;18.590;2023-03-23T15:45:27;100133.16;;;14.40;65.48
48606;BME280;8482;54.396;18.590;2023-03-23T15:47:54;100121.47;;;14.41;65.31
48606;BME280;8482;54.396;18.590;2023-03-23T15:52:52;100120.50;;;14.43;64.93
48606;BME280;8482;54.396;18.590;2023-03-23T15:55:35;100115.59;;;14.30;65.11
48606;BME280;8482;54.396;18.590;2023-03-23T15:58:08;100122.41;;;14.24;65.15
48606;BME280;8482;54.396;18.590;2023-03-23T16:00:36;100120.53;;;14.16;65.82
48606;BME280;8482;54.396;18.590;2023-03-23T16:03:06;100127.69;;;14.07;65.96
48606;BME280;8482;54.396;18.590;2023-03-23T16:05:33;100125.66;;;14.01;66.39
48606;BME280;8482;54.396;18.590;2023-03-23T16:08:00;100115.94;;;13.92;66.68
48606;BME280;8482;54.396;18.590;2023-03-23T16:10:27;100121.06;;;13.85;66.88
48606;BME280;8482;54.396;18.590;2023-03-23T16:12:53;100120.88;;;13.78;67.04
48606;BME280;8482;54.396;18.590;2023-03-23T16:15:19;100127.38;;;13.76;67.36
48606;BME280;8482;54.396;18.590;2023-03-23T16:17:46;100134.13;;;13.70;67.29
48606;BME280;8482;54.396;18.590;2023-03-23T16:20:19;100148.47;;;13.69;67.70
48606;BME280;8482;54.396;18.590;2023-03-23T16:22:47;100133.91;;;13.63;67.85
48606;BME280;8482;54.396;18.590;2023-03-23T16:25:15;100144.75;;;13.62;67.89
48606;BME280;8482;54.396;18.590;2023-03-23T16:27:42;100142.78;;;13.64;68.28
48606;BME280;8482;54.396;18.590;2023-03-23T16:30:22;100154.59;;;13.61;68.76
48606;BME280;8482;54.396;18.590;2023-03-23T16:32:48;100156.03;;;13.56;68.70
48606;BME280;8482;54.396;18.590;2023-03-23T16:35:15;100158.16;;;13.52;68.72
48606;BME280;8482;54.396;18.590;2023-03-23T16:37:50;100178.50;;;13.53;69.36
48606;BME280;8482;54.396;18.590;2023-03-23T16:40:18;100195.81;;;13.49;69.73
48606;BME280;8482;54.396;18.590;2023-03-23T16:42:45;100224.56;;;13.45;70.64
48606;BME280;8482;54.396;18.590;2023-03-23T16:45:14;100271.97;;;13.42;71.90
48606;BME280;8482;54.396;18.590;2023-03-23T16:47:42;100272.00;;;13.32;71.12
48606;BME280;8482;54.396;18.590;2023-03-23T16:50:12;100266.19;;;13.00;70.64
48606;BME280;8482;54.396;18.590;2023-03-23T16:52:41;100259.84;;;12.46;71.37
48606;BME280;8482;54.396;18.590;2023-03-23T16:55:09;100265.28;;;12.06;72.90
48606;BME280;8482;54.396;18.590;2023-03-23T16:57:36;100263.34;;;11.79;74.14
48606;BME280;8482;54.396;18.590;2023-03-23T17:00:12;100255.09;;;11.53;74.71
48606;BME280;8482;54.396;18.590;2023-03-23T17:02:41;100250.91;;;11.40;76.00
48606;BME280;8482;54.396;18.590;2023-03-23T17:05:09;100260.69;;;11.30;77.11
48606;BME280;8482;54.396;18.590;2023-03-23T17:07:40;100257.03;;;11.21;77.65
48606;BME280;8482;54.396;18.590;2023-03-23T17:10:09;100262.91;;;11.15;78.63
48606;BME280;8482;54.396;18.590;2023-03-23T17:12:35;100242.91;;;11.11;79.33
48606;BME280;8482;54.396;18.590;2023-03-23T17:15:02;100225.44;;;11.08;79.83
48606;BME280;8482;54.396;18.590;2023-03-23T17:17:28;100236.19;;;11.07;79.85
48606;BME280;8482;54.396;18.590;2023-03-23T17:19:54;100233.84;;;11.03;80.46
48606;BME280;8482;54.396;18.590;2023-03-23T17:22:21;100231.28;;;11.02;81.04
48606;BME280;8482;54.396;18.590;2023-03-23T17:24:47;100231.56;;;10.99;81.12
48606;BME280;8482;54.396;18.590;2023-03-23T17:27:17;100224.59;;;10.98;81.58
48606;BME280;8482;54.396;18.590;2023-03-23T17:29:44;100233.53;;;10.97;81.25
48606;BME280;8482;54.396;18.590;2023-03-23T17:32:11;100212.84;;;10.91;81.36
48606;BME280;8482;54.396;18.590;2023-03-23T17:34:37;100228.22;;;10.97;81.29
48606;BME280;8482;54.396;18.590;2023-03-23T17:37:04;100226.09;;;10.91;81.90
48606;BME280;8482;54.396;18.590;2023-03-23T17:39:31;100236.56;;;10.92;82.21
48606;BME280;8482;54.396;18.590;2023-03-23T17:41:59;100219.13;;;10.89;82.39
48606;BME280;8482;54.396;18.590;2023-03-23T17:44:26;100219.00;;;10.91;81.95
48606;BME280;8482;54.396;18.590;2023-03-23T17:46:52;100225.41;;;10.88;82.02
48606;BME280;8482;54.396;18.590;2023-03-23T17:49:22;100235.31;;;10.86;81.84
48606;BME280;8482;54.396;18.590;2023-03-23T17:51:49;100247.91;;;10.84;82.11
48606;BME280;8482;54.396;18.590;2023-03-23T17:54:15;100240.06;;;10.83;82.38
48606;BME280;8482;54.396;18.590;2023-03-23T17:56:40;100242.00;;;10.81;82.64
48606;BME280;8482;54.396;18.590;2023-03-23T17:59:06;100240.47;;;10.78;82.61
48606;BME280;8482;54.396;18.590;2023-03-23T18:01:33;100248.28;;;10.80;82.49
48606;BME280;8482;54.396;18.590;2023-03-23T18:03:59;100263.38;;;10.79;82.54
48606;BME280;8482;54.396;18.590;2023-03-23T18:06:26;100264.91;;;10.82;82.48
48606;BME280;8482;54.396;18.590;2023-03-23T18:08:52;100266.72;;;10.81;82.74
48606;BME280;8482;54.396;18.590;2023-03-23T18:11:18;100281.78;;;10.81;82.66
48606;BME280;8482;54.396;18.590;2023-03-23T18:13:44;100279.53;;;10.76;82.84
48606;BME280;8482;54.396;18.590;2023-03-23T18:16:09;100280.97;;;10.80;82.93
48606;BME280;8482;54.396;18.590;2023-03-23T18:18:35;100281.09;;;10.79;83.08
48606;BME280;8482;54.396;18.590;2023-03-23T18:21:08;100284.44;;;10.81;83.21
48606;BME280;8482;54.396;18.590;2023-03-23T18:23:36;100296.03;;;10.80;83.19
48606;BME280;8482;54.396;18.590;2023-03-23T18:26:05;100304.59;;;10.83;83.23
48606;BME280;8482;54.396;18.590;2023-03-23T18:28:32;100300.25;;;10.82;83.27
48606;BME280;8482;54.396;18.590;2023-03-23T18:31:08;100292.16;;;10.84;83.48
48606;BME280;8482;54.396;18.590;2023-03-23T18:33:35;100294.78;;;10.84;83.60
48606;BME280;8482;54.396;18.590;2023-03-23T18:36:04;100299.84;;;10.87;83.66
48606;BME280;8482;54.396;18.590;2023-03-23T18:38:31;100289.09;;;10.88;83.62
48606;BME280;8482;54.396;18.590;2023-03-23T18:40:57;100308.38;;;10.91;83.80
48606;BME280;8482;54.396;18.590;2023-03-23T18:43:24;100295.25;;;10.89;83.73
48606;BME280;8482;54.396;18.590;2023-03-23T18:45:55;100300.25;;;10.92;83.73
48606;BME280;8482;54.396;18.590;2023-03-23T18:48:23;100301.13;;;10.93;83.75
48606;BME280;8482;54.396;18.590;2023-03-23T18:50:52;100302.81;;;10.94;83.81
48606;BME280;8482;54.396;18.590;2023-03-23T18:53:19;100299.44;;;10.92;83.78
48606;BME280;8482;54.396;18.590;2023-03-23T18:55:47;100294.13;;;10.92;84.13
48606;BME280;8482;54.396;18.590;2023-03-23T18:58:15;100295.81;;;10.93;84.17
48606;BME280;8482;54.396;18.590;2023-03-23T19:00:43;100306.44;;;10.93;84.47
48606;BME280;8482;54.396;18.590;2023-03-23T19:03:09;100308.38;;;10.91;84.43
48606;BME280;8482;54.396;18.590;2023-03-23T19:05:38;100320.81;;;10.90;84.23
48606;BME280;8482;54.396;18.590;2023-03-23T19:08:08;100337.56;;;10.91;84.17
48606;BME280;8482;54.396;18.590;2023-03-23T19:10:40;100325.41;;;10.88;84.08
48606;BME280;8482;54.396;18.590;2023-03-23T19:13:08;100322.88;;;10.86;84.29
48606;BME280;8482;54.396;18.590;2023-03-23T19:15:39;100329.16;;;10.85;84.13
48606;BME280;8482;54.396;18.590;2023-03-23T19:18:07;100328.31;;;10.85;84.35
48606;BME280;8482;54.396;18.590;2023-03-23T19:20:33;100333.78;;;10.83;84.65
48606;BME280;8482;54.396;18.590;2023-03-23T19:22:59;100339.91;;;10.84;84.58
48606;BME280;8482;54.396;18.590;2023-03-23T19:25:25;100337.09;;;10.85;84.67
48606;BME280;8482;54.396;18.590;2023-03-23T19:27:52;100339.75;;;10.85;84.54
48606;BME280;8482;54.396;18.590;2023-03-23T19:30:18;100329.44;;;10.82;84.24
48606;BME280;8482;54.396;18.590;2023-03-23T19:32:44;100334.84;;;10.81;84.69
48606;BME280;8482;54.396;18.590;2023-03-23T19:35:10;100342.25;;;10.77;84.62
48606;BME280;8482;54.396;18.590;2023-03-23T19:37:36;100346.00;;;10.75;84.70
48606;BME280;8482;54.396;18.590;2023-03-23T19:40:03;100346.28;;;10.71;84.99
48606;BME280;8482;54.396;18.590;2023-03-23T19:42:31;100359.41;;;10.73;84.60
48606;BME280;8482;54.396;18.590;2023-03-23T19:44:57;100364.13;;;10.69;84.78
48606;BME280;8482;54.396;18.590;2023-03-23T19:47:23;100348.22;;;10.69;84.96
48606;BME280;8482;54.396;18.590;2023-03-23T19:49:49;100350.88;;;10.69;84.75
48606;BME280;8482;54.396;18.590;2023-03-23T19:52:15;100356.81;;;10.62;84.81
48606;BME280;8482;54.396;18.590;2023-03-23T19:54:41;100368.88;;;10.66;84.46
48606;BME280;8482;54.396;18.590;2023-03-23T19:57:07;100361.06;;;10.64;84.55
48606;BME280;8482;54.396;18.590;2023-03-23T19:59:36;100365.50;;;10.64;84.44
48606;BME280;8482;54.396;18.590;2023-03-23T20:02:02;100350.56;;;10.63;84.41
48606;BME280;8482;54.396;18.590;2023-03-23T20:04:28;100356.00;;;10.61;83.87
48606;BME280;8482;54.396;18.590;2023-03-23T20:06:55;100366.59;;;10.61;84.04
48606;BME280;8482;54.396;18.590;2023-03-23T20:09:21;100373.59;;;10.62;83.85
48606;BME280;8482;54.396;18.590;2023-03-23T20:11:47;100377.22;;;10.61;83.99
48606;BME280;8482;54.396;18.590;2023-03-23T20:14:13;100378.91;;;10.62;84.02
48606;BME280;8482;54.396;18.590;2023-03-23T20:16:39;100380.59;;;10.63;83.93
48606;BME280;8482;54.396;18.590;2023-03-23T20:19:05;100376.97;;;10.64;83.80
48606;BME280;8482;54.396;18.590;2023-03-23T20:21:33;100377.78;;;10.65;83.29
48606;BME280;8482;54.396;18.590;2023-03-23T20:23:59;100381.66;;;10.61;83.12
48606;BME280;8482;54.396;18.590;2023-03-23T20:26:28;100379.16;;;10.59;83.20
48606;BME280;8482;54.396;18.590;2023-03-23T20:28:55;100373.13;;;10.57;83.51
48606;BME280;8482;54.396;18.590;2023-03-23T20:31:32;100326.25;;;10.57;82.92
48606;BME280;8482;54.396;18.590;2023-03-23T20:34:08;100323.72;;;10.56;83.09
48606;BME280;8482;54.396;18.590;2023-03-23T20:36:39;100324.69;;;10.55;82.99
48606;BME280;8482;54.396;18.590;2023-03-23T20:39:16;100302.75;;;10.53;83.01
48606;BME280;8482;54.396;18.590;2023-03-23T20:41:46;100315.59;;;10.48;82.89
48606;BME280;8482;54.396;18.590;2023-03-23T20:44:16;100333.56;;;10.44;82.49
48606;BME280;8482;54.396;18.590;2023-03-23T20:46:47;100348.06;;;10.40;82.37
48606;BME280;8482;54.396;18.590;2023-03-23T20:49:16;100345.78;;;10.35;82.45
48606;BME280;8482;54.396;18.590;2023-03-23T20:51:43;100348.81;;;10.31;82.45